Time;durP1;ratioP1;P1;durP2;ratioP2;P2;SDS_P1;SDS_P2;PMS_P1;PMS_P2;Temp;Humidity;BMP_temperature;BMP_pressure;BME280_temperature;BME280_humidity;BME280_pressure;Samples;Min_cycle;Max_cycle;Signal;HPM_P1;HPM_P2
2022/05/29 00:01:52;;;;;;;6.40;2.00;;;9.20;99.90;;;;;;5093072;28;20080;-79
2022/05/29 00:04:19;;;;;;;6.68;2.30;;;9.10;99.90;;;;;;5078448;28;20379;-80
2022/05/29 00:06:48;;;;;;;4.65;2.42;;;9.10;99.90;;;;;;5091438;28;20100;-79
2022/05/29 00:09:19;;;;;;;9.45;2.20;;;9.10;99.90;;;;;;5091691;28;20111;-78
2022/05/29 00:11:45;;;;;;;4.85;1.80;;;9.10;99.90;;;;;;5092330;28;20101;-79
2022/05/29 00:14:10;;;;;;;3.20;1.73;;;9.00;99.90;;;;;;5091813;28;20024;-78
2022/05/29 00:16:36;;;;;;;4.82;2.20;;;9.00;99.90;;;;;;5091393;28;20366;-79
2022/05/29 00:19:02;;;;;;;9.32;2.25;;;8.90;99.90;;;;;;5092154;28;20024;-78
2022/05/29 00:21:34;;;;;;;5.15;2.38;;;9.00;99.90;;;;;;5092120;28;20074;-77
2022/05/29 00:24:00;;;;;;;6.10;2.50;;;8.90;99.90;;;;;;5091452;28;20020;-78
2022/05/29 00:26:26;;;;;;;5.43;2.47;;;8.90;99.90;;;;;;5091965;28;20058;-78
2022/05/29 00:28:51;;;;;;;11.55;2.13;;;8.90;99.90;;;;;;5091649;28;20028;-79
2022/05/29 00:31:17;;;;;;;5.53;2.03;;;8.80;99.90;;;;;;5091820;28;20074;-79
2022/05/29 00:33:43;;;;;;;4.85;1.98;;;8.80;99.90;;;;;;5088898;28;20017;-78
2022/05/29 00:36:15;;;;;;;4.03;1.75;;;8.80;99.90;;;;;;5081066;28;20020;-78
2022/05/29 00:38:43;;;;;;;6.85;1.90;;;8.80;99.90;;;;;;5091327;28;20046;-78
2022/05/29 00:41:17;;;;;;;3.67;1.80;;;8.80;99.90;;;;;;5083255;28;20025;-78
2022/05/29 00:43:43;;;;;;;5.97;2.17;;;8.80;99.90;;;;;;5087133;28;20472;-78
2022/05/29 00:46:09;;;;;;;8.65;1.85;;;8.80;99.90;;;;;;5091029;28;20067;-78
2022/05/29 00:48:34;;;;;;;6.25;1.92;;;8.70;99.90;;;;;;5091713;28;20487;-78
2022/05/29 00:51:05;;;;;;;5.97;2.55;;;8.70;99.90;;;;;;5091349;28;20067;-80
2022/05/29 00:53:33;;;;;;;6.40;2.20;;;8.80;99.90;;;;;;5091274;28;20034;-78
2022/05/29 00:56:01;;;;;;;8.05;2.25;;;8.70;99.90;;;;;;5091627;28;20043;-78
2022/05/29 00:58:27;;;;;;;5.97;1.88;;;8.70;99.90;;;;;;5085076;28;20036;-78
2022/05/29 01:00:55;;;;;;;5.90;1.85;;;8.70;99.90;;;;;;5090986;28;20073;-78
2022/05/29 01:03:21;;;;;;;6.43;2.10;;;8.70;99.90;;;;;;5091749;28;20028;-79
2022/05/29 01:05:47;;;;;;;7.90;2.05;;;8.70;99.90;;;;;;5083656;28;20036;-79
2022/05/29 01:08:20;;;;;;;7.50;2.33;;;8.80;99.90;;;;;;5095342;28;20024;-79
2022/05/29 01:11:10;;;;;;;4.88;1.30;;;8.70;99.90;;;;;;5095172;28;20016;-78
2022/05/29 01:13:54;;;;;;;5.53;2.03;;;8.70;99.90;;;;;;5094450;28;20052;-78
2022/05/29 01:16:45;;;;;;;11.05;3.50;;;8.70;99.90;;;;;;5083282;28;20456;-78
2022/05/29 01:19:40;;;;;;;7.82;1.83;;;8.70;99.90;;;;;;5107284;28;20031;-78
2022/05/29 01:22:08;;;;;;;5.03;1.73;;;8.60;99.90;;;;;;5100198;28;20388;-79
2022/05/29 01:24:46;;;;;;;11.07;1.95;;;8.60;99.90;;;;;;5081395;28;20024;-78
2022/05/29 01:27:23;;;;;;;5.78;2.00;;;8.50;99.90;;;;;;5093960;28;20496;-78
2022/05/29 01:30:03;;;;;;;6.75;2.03;;;8.50;99.90;;;;;;5101968;28;20048;-78
2022/05/29 01:32:55;;;;;;;11.13;2.30;;;8.40;99.90;;;;;;5097151;28;20028;-78
2022/05/29 01:35:28;;;;;;;8.98;2.08;;;8.40;99.90;;;;;;5118808;28;20028;-81
2022/05/29 01:38:08;;;;;;;6.65;2.10;;;8.30;99.90;;;;;;5094552;28;20035;-79
2022/05/29 01:40:39;;;;;;;6.80;2.22;;;8.30;99.90;;;;;;5094975;28;20069;-80
2022/05/29 01:43:10;;;;;;;;;;;8.40;99.90;;;;;;5080086;28;20095;-78
2022/05/29 01:45:59;;;;;;;6.70;2.00;;;8.40;99.90;;;;;;5094743;28;19904;-79
2022/05/29 01:48:50;;;;;;;6.32;1.83;;;8.50;99.90;;;;;;5094822;28;20036;-77
2022/05/29 01:51:29;;;;;;;4.93;2.03;;;8.40;99.90;;;;;;5094522;28;20023;-79
2022/05/29 01:54:16;;;;;;;5.00;2.13;;;8.40;99.90;;;;;;5094234;28;20077;-77
2022/05/29 01:56:49;;;;;;;9.25;2.15;;;8.40;99.90;;;;;;5079341;28;20270;-79
2022/05/29 01:59:31;;;;;;;14.00;2.70;;;8.50;99.90;;;;;;5082868;28;20076;-78
2022/05/29 02:02:03;;;;;;;19.25;3.08;;;8.50;99.90;;;;;;5087495;28;20049;-80
2022/05/29 02:04:32;;;;;;;7.72;2.35;;;8.50;99.90;;;;;;5086532;28;20088;-79
2022/05/29 02:09:51;;;;;;;4.35;2.03;;;8.50;99.90;;;;;;5093982;28;20043;-78
2022/05/29 02:12:21;;;;;;;5.40;1.88;;;8.50;99.90;;;;;;5094067;28;20490;-79
2022/05/29 02:14:56;;;;;;;9.07;2.15;;;8.50;99.90;;;;;;5094212;28;20400;-79
2022/05/29 02:17:26;;;;;;;4.95;2.22;;;8.50;99.90;;;;;;5088101;28;20029;-79
2022/05/29 02:19:59;;;;;;;7.63;2.40;;;8.60;99.90;;;;;;5073658;28;20041;-81
2022/05/29 02:22:28;;;;;;;5.15;1.80;;;8.60;99.90;;;;;;5092640;28;20424;-78
2022/05/29 02:25:07;;;;;;;4.05;1.95;;;8.70;99.90;;;;;;5093016;28;20086;-80
2022/05/29 02:27:54;;;;;;;3.38;1.85;;;8.80;99.90;;;;;;5093432;28;20119;-79
2022/05/29 02:30:25;;;;;;;5.50;1.60;;;8.90;99.90;;;;;;5092849;28;20030;-79
2022/05/29 02:33:27;;;;;;;2.58;1.63;;;8.90;99.90;;;;;;5093507;28;20063;-78
2022/05/29 02:36:19;;;;;;;8.20;2.10;;;9.00;99.90;;;;;;5093078;28;20036;-79
2022/05/29 02:39:27;;;;;;;7.15;1.70;;;9.10;99.90;;;;;;5093151;28;20107;-78
2022/05/29 02:42:25;;;;;;;5.72;2.17;;;9.10;99.90;;;;;;5091473;28;20032;-80
2022/05/29 02:45:09;;;;;;;9.50;1.98;;;9.20;99.90;;;;;;5091519;28;20472;-81
2022/05/29 02:47:56;;;;;;;5.45;2.13;;;9.30;99.90;;;;;;5093052;28;20032;-78
2022/05/29 02:50:35;;;;;;;7.40;2.30;;;9.30;99.90;;;;;;5093073;28;20364;-80
2022/05/29 02:53:08;;;;;;;5.85;2.15;;;9.30;99.90;;;;;;5091966;28;20027;-79
2022/05/29 02:55:34;;;;;;;2.83;1.65;;;9.40;99.90;;;;;;5093241;28;20426;-78
2022/05/29 02:58:03;;;;;;;8.50;2.05;;;9.40;99.90;;;;;;5092366;28;20536;-79
2022/05/29 03:00:48;;;;;;;4.90;1.90;;;9.40;99.90;;;;;;5093279;28;20039;-80
2022/05/29 03:03:29;;;;;;;4.13;1.90;;;9.50;99.90;;;;;;5074841;28;20024;-79
2022/05/29 03:06:22;;;;;;;5.95;2.22;;;9.50;99.90;;;;;;5091791;28;20053;-79
2022/05/29 03:09:02;;;;;;;4.30;2.20;;;9.50;99.90;;;;;;5092806;28;20094;-79
2022/05/29 03:11:47;;;;;;;6.40;2.25;;;9.60;99.90;;;;;;5092914;28;20035;-79
2022/05/29 03:14:28;;;;;;;9.30;2.47;;;9.60;99.90;;;;;;5092131;28;20046;-80
2022/05/29 03:17:09;;;;;;;6.00;1.98;;;10.00;99.90;;;;;;5092370;28;20476;-81
2022/05/29 03:19:43;;;;;;;;;;;9.80;99.90;;;;;;5092251;28;20388;-80
2022/05/29 03:22:27;;;;;;;7.88;2.10;;;9.90;99.90;;;;;;5092279;28;19904;-80
2022/05/29 03:25:02;;;;;;;9.23;2.03;;;10.00;99.90;;;;;;5092270;28;20479;-79
2022/05/29 03:27:43;;;;;;;6.35;1.77;;;10.00;99.90;;;;;;5091596;28;20032;-80
2022/05/29 03:30:17;;;;;;;;;;;10.00;99.90;;;;;;5091982;28;20353;-80
2022/05/29 03:32:42;;;;;;;5.13;1.75;;;10.00;99.90;;;;;;5092543;28;20336;-79
2022/05/29 03:35:15;;;;;;;5.55;1.90;;;10.10;99.90;;;;;;5092072;28;20028;-81
2022/05/29 03:37:41;;;;;;;2.90;1.45;;;10.20;99.90;;;;;;5092017;28;20444;-80
2022/05/29 03:40:07;;;;;;;5.88;1.33;;;10.20;99.90;;;;;;5092156;28;20070;-80
2022/05/29 03:42:32;;;;;;;7.13;2.33;;;10.20;99.90;;;;;;5091252;28;20529;-81
2022/05/29 03:44:58;;;;;;;11.95;1.45;;;10.20;99.90;;;;;;5092109;28;20028;-81
2022/05/29 03:47:24;;;;;;;2.60;1.30;;;10.10;99.90;;;;;;5091535;28;20032;-79
2022/05/29 03:49:50;;;;;;;7.82;2.85;;;10.10;99.90;;;;;;5092001;28;20016;-79
2022/05/29 03:52:15;;;;;;;9.77;1.40;;;10.10;99.90;;;;;;5092319;28;20027;-79
2022/05/29 03:54:41;;;;;;;8.73;1.67;;;10.00;99.90;;;;;;5091403;28;20107;-79
2022/05/29 03:57:06;;;;;;;6.55;1.70;;;10.00;99.90;;;;;;5091777;28;20883;-80
2022/05/29 03:59:32;;;;;;;6.15;1.75;;;9.90;99.90;;;;;;5077533;28;20053;-79
2022/05/29 04:01:57;;;;;;;5.70;1.33;;;9.90;99.90;;;;;;5091495;28;20020;-79
2022/05/29 04:04:23;;;;;;;2.55;1.25;;;9.90;99.90;;;;;;5092321;28;20028;-80
2022/05/29 04:06:48;;;;;;;5.28;2.00;;;9.80;99.90;;;;;;5091896;28;20455;-79
2022/05/29 04:12:04;;;;;;;4.13;1.50;;;9.80;99.90;;;;;;5091704;28;20088;-79
2022/05/29 04:14:35;;;;;;;6.38;1.75;;;9.80;99.90;;;;;;5092526;28;20024;-80
2022/05/29 04:17:01;;;;;;;;;;;9.80;99.90;;;;;;5091437;28;20028;-80
2022/05/29 04:19:27;;;;;;;4.00;1.25;;;9.80;99.90;;;;;;5092406;28;19904;-80
2022/05/29 04:21:52;;;;;;;2.75;1.92;;;9.90;99.90;;;;;;5091677;28;20029;-80
2022/05/29 04:24:21;;;;;;;3.60;1.30;;;10.00;99.90;;;;;;5091420;28;20052;-80
2022/05/29 04:26:50;;;;;;;5.20;1.45;;;10.00;99.90;;;;;;5091885;28;20059;-80
2022/05/29 04:29:17;;;;;;;5.65;1.40;;;10.00;99.90;;;;;;5077765;28;20028;-79
2022/05/29 04:32:59;;;;;;;4.32;1.60;;;10.10;99.90;;;;;;5091318;28;20028;-78
2022/05/29 04:34:29;;;;;;;9.77;1.92;;;10.10;99.90;;;;;;5085462;28;20476;-79
2022/05/29 04:36:54;;;;;;;6.00;1.52;;;10.10;99.90;;;;;;5082931;28;20114;-79
2022/05/29 04:39:20;;;;;;;5.13;1.50;;;10.20;99.90;;;;;;5091631;28;20104;-80
2022/05/29 04:41:46;;;;;;;8.98;1.80;;;10.20;99.90;;;;;;5093421;28;20020;-79
2022/05/29 04:44:11;;;;;;;5.65;2.03;;;10.20;99.90;;;;;;5094509;28;20028;-78
2022/05/29 04:46:37;;;;;;;3.53;2.33;;;10.20;99.90;;;;;;5087456;28;20079;-78
2022/05/29 04:49:02;;;;;;;4.70;1.70;;;10.20;99.90;;;;;;5089516;28;20516;-80
2022/05/29 04:51:28;;;;;;;6.13;2.05;;;10.20;99.90;;;;;;5094698;28;20385;-78
2022/05/29 04:53:54;;;;;;;9.23;1.50;;;10.30;99.90;;;;;;5095342;28;20472;-78
2022/05/29 04:56:19;;;;;;;7.30;1.50;;;10.30;99.90;;;;;;5095404;28;20028;-78
2022/05/29 04:58:45;;;;;;;7.53;3.03;;;10.40;99.90;;;;;;5094529;28;20070;-80
2022/05/29 05:01:10;;;;;;;8.07;1.88;;;10.30;99.90;;;;;;5093178;28;20020;-79
2022/05/29 05:03:36;;;;;;;4.25;1.50;;;10.40;99.90;;;;;;5083272;28;20498;-81
2022/05/29 05:06:02;;;;;;;3.60;1.45;;;10.40;99.90;;;;;;5094571;28;20055;-80
2022/05/29 05:08:28;;;;;;;3.47;1.60;;;10.50;99.90;;;;;;5109824;28;20112;-80
2022/05/29 05:10:54;;;;;;;3.78;1.50;;;10.60;99.90;;;;;;5113221;28;20035;-80
2022/05/29 05:13:20;;;;;;;2.95;1.50;;;10.80;99.90;;;;;;5111803;28;20031;-80
2022/05/29 05:15:46;;;;;;;7.32;1.88;;;10.90;99.90;;;;;;5110372;28;20023;-80
2022/05/29 05:18:11;;;;;;;5.70;1.77;;;11.10;99.90;;;;;;5111213;28;20105;-80
2022/05/29 05:20:37;;;;;;;4.47;1.77;;;11.20;99.90;;;;;;5106366;28;20073;-81
2022/05/29 05:23:03;;;;;;;7.45;1.90;;;11.30;99.90;;;;;;5115060;28;20388;-80
2022/05/29 05:25:29;;;;;;;9.18;2.92;;;11.50;99.90;;;;;;5113059;28;20024;-79
2022/05/29 05:27:54;;;;;;;6.90;1.90;;;11.60;99.90;;;;;;5111650;28;20063;-80
2022/05/29 05:30:21;;;;;;;10.45;2.30;;;11.60;99.90;;;;;;5111235;28;20035;-80
2022/05/29 05:32:46;;;;;;;10.90;2.30;;;11.70;99.90;;;;;;5107811;28;20016;-80
2022/05/29 05:35:12;;;;;;;5.63;1.88;;;11.70;99.90;;;;;;5109095;28;20379;-80
2022/05/29 05:37:39;;;;;;;6.25;2.15;;;11.70;99.90;;;;;;5112836;28;20336;-81
2022/05/29 05:40:09;;;;;;;5.07;1.48;;;11.70;99.90;;;;;;5111317;28;20137;-80
2022/05/29 05:42:35;;;;;;;11.27;3.47;;;11.70;99.90;;;;;;5109421;28;20043;-80
2022/05/29 05:45:00;;;;;;;2.22;1.38;;;11.70;99.90;;;;;;5110390;28;20062;-80
2022/05/29 05:47:26;;;;;;;6.10;1.83;;;11.70;99.90;;;;;;5106425;28;20028;-80
2022/05/29 05:49:51;;;;;;;5.57;1.80;;;11.70;99.90;;;;;;5107305;28;20036;-80
2022/05/29 05:52:18;;;;;;;5.30;1.60;;;11.80;99.90;;;;;;5109192;28;20020;-79
2022/05/29 05:54:44;;;;;;;4.43;1.50;;;11.80;99.90;;;;;;5107642;28;20468;-80
2022/05/29 05:57:10;;;;;;;3.17;1.50;;;11.80;99.90;;;;;;5109272;28;20373;-80
2022/05/29 05:59:38;;;;;;;11.00;2.45;;;11.80;99.90;;;;;;5108623;28;20499;-80
2022/05/29 06:02:05;;;;;;;3.63;1.13;;;11.80;99.90;;;;;;5106611;28;20102;-81
2022/05/29 06:04:31;;;;;;;4.75;1.40;;;11.60;99.90;;;;;;5105871;28;20484;-80
2022/05/29 06:06:56;;;;;;;5.18;1.77;;;11.70;99.90;;;;;;5107853;28;20055;-81
2022/05/29 06:09:23;;;;;;;7.85;2.03;;;11.60;99.90;;;;;;5109609;28;20020;-80
2022/05/29 06:11:49;;;;;;;5.10;1.45;;;11.60;99.90;;;;;;5108607;28;20096;-80
2022/05/29 06:14:14;;;;;;;8.55;1.42;;;11.60;99.90;;;;;;5112191;28;20440;-81
2022/05/29 06:16:40;;;;;;;6.90;1.45;;;11.60;99.90;;;;;;5110479;28;20028;-80
2022/05/29 06:19:06;;;;;;;6.03;1.30;;;11.60;99.90;;;;;;5107664;28;20028;-80
2022/05/29 06:21:35;;;;;;;6.30;1.75;;;11.60;99.90;;;;;;5109301;28;20043;-80
2022/05/29 06:24:01;;;;;;;6.75;1.40;;;11.70;99.90;;;;;;5104470;28;20039;-80
2022/05/29 06:26:26;;;;;;;8.13;1.63;;;11.90;99.90;;;;;;5111123;28;20479;-80
2022/05/29 06:28:52;;;;;;;4.40;1.35;;;12.00;99.90;;;;;;5100773;28;20020;-82
2022/05/29 06:31:17;;;;;;;6.85;1.67;;;12.10;99.90;;;;;;5090164;28;20376;-80
2022/05/29 06:33:43;;;;;;;4.40;1.80;;;12.10;99.90;;;;;;5090210;28;20060;-81
2022/05/29 06:36:20;;;;;;;4.10;1.90;;;12.10;99.90;;;;;;5088412;28;20122;-80
2022/05/29 06:38:46;;;;;;;4.38;1.30;;;12.20;99.90;;;;;;5093152;28;20024;-80
2022/05/29 06:41:14;;;;;;;6.10;1.45;;;12.20;99.90;;;;;;5099121;28;20511;-81
2022/05/29 06:43:40;;;;;;;10.50;1.65;;;12.30;99.90;;;;;;5091981;28;20020;-81
2022/05/29 06:46:07;;;;;;;4.75;1.27;;;12.30;99.90;;;;;;5091265;28;20055;-80
2022/05/29 06:48:34;;;;;;;7.15;1.63;;;12.30;99.90;;;;;;5092379;28;20031;-81
2022/05/29 06:51:07;;;;;;;5.65;1.80;;;12.30;99.90;;;;;;5088461;28;20099;-80
2022/05/29 06:53:34;;;;;;;2.95;1.10;;;12.30;99.90;;;;;;5092059;28;20113;-81
2022/05/29 06:56:00;;;;;;;6.35;2.00;;;12.30;99.90;;;;;;5090980;28;20027;-80
2022/05/29 06:58:25;;;;;;;2.10;1.20;;;12.30;99.90;;;;;;5091305;28;20036;-81
2022/05/29 07:09:04;;;;;;;5.00;1.38;;;12.10;99.90;;;;;;5090309;28;20055;-81
2022/05/29 07:11:35;;;;;;;10.27;1.60;;;12.10;99.90;;;;;;5094689;28;20084;-83
2022/05/29 07:14:02;;;;;;;8.32;1.85;;;12.10;99.90;;;;;;5093750;28;20535;-83
2022/05/29 07:16:28;;;;;;;8.52;1.80;;;12.00;99.90;;;;;;5092325;28;20031;-84
2022/05/29 07:18:54;;;;;;;5.85;1.50;;;12.00;99.90;;;;;;5091793;28;20028;-83
2022/05/29 07:21:20;;;;;;;6.03;1.88;;;12.00;99.90;;;;;;5092571;28;20028;-83
2022/05/29 07:23:46;;;;;;;7.30;1.58;;;12.10;99.90;;;;;;5092297;28;20078;-84
2022/05/29 07:26:11;;;;;;;3.97;1.30;;;12.20;99.90;;;;;;5090940;28;20120;-80
2022/05/29 07:28:37;;;;;;;5.45;1.42;;;12.30;99.90;;;;;;5090809;28;20028;-80
2022/05/29 07:31:03;;;;;;;5.55;1.60;;;12.30;99.90;;;;;;5089291;28;20032;-80
2022/05/29 07:33:29;;;;;;;5.22;1.58;;;12.40;99.90;;;;;;5088934;28;20537;-81
2022/05/29 07:35:55;;;;;;;3.83;1.13;;;12.50;99.90;;;;;;5088960;28;20020;-81
2022/05/29 07:38:20;;;;;;;8.02;1.30;;;12.40;99.90;;;;;;5088818;28;20046;-81
2022/05/29 07:40:46;;;;;;;4.55;1.48;;;12.50;99.90;;;;;;5088801;28;20025;-83
2022/05/29 07:43:22;;;;;;;4.15;1.52;;;12.50;99.90;;;;;;5089270;28;20069;-79
2022/05/29 07:45:52;;;;;;;3.92;1.52;;;12.50;99.90;;;;;;5088991;28;20073;-82
2022/05/29 07:48:19;;;;;;;6.43;1.70;;;12.60;99.90;;;;;;5090949;28;20480;-81
2022/05/29 07:50:45;;;;;;;5.63;1.52;;;12.70;99.90;;;;;;5091286;28;20376;-81
2022/05/29 07:53:11;;;;;;;3.88;1.52;;;12.90;99.90;;;;;;5092329;28;20024;-82
2022/05/29 07:55:38;;;;;;;4.20;1.55;;;13.10;99.90;;;;;;5082775;28;20016;-81
2022/05/29 07:58:07;;;;;;;5.90;1.20;;;13.20;99.90;;;;;;5092053;28;20028;-81
2022/05/29 08:00:34;;;;;;;2.42;0.98;;;13.50;99.90;;;;;;5090578;28;20034;-80
2022/05/29 08:03:01;;;;;;;8.18;2.15;;;13.70;99.90;;;;;;5090084;28;20067;-85
2022/05/29 08:05:29;;;;;;;5.40;2.53;;;13.80;99.90;;;;;;5091019;28;20020;-79
2022/05/29 08:07:54;;;;;;;5.28;1.40;;;13.70;99.90;;;;;;5090310;28;20398;-78
2022/05/29 08:10:22;;;;;;;6.28;1.20;;;13.50;99.90;;;;;;5091954;28;20103;-79
2022/05/29 08:12:48;;;;;;;4.50;1.75;;;13.30;99.90;;;;;;5091572;28;20117;-83
2022/05/29 08:15:14;;;;;;;12.18;2.50;;;13.30;99.90;;;;;;5092843;28;20035;-82
2022/05/29 08:17:40;;;;;;;4.25;1.48;;;13.40;99.90;;;;;;5096184;28;20016;-81
2022/05/29 08:20:07;;;;;;;5.25;1.63;;;13.60;99.90;;;;;;5095997;28;20016;-81
2022/05/29 08:22:33;;;;;;;7.13;1.52;;;13.90;99.90;;;;;;5095588;28;20024;-83
2022/05/29 08:30:47;;;;;;;5.35;1.20;;;14.00;99.90;;;;;;5090190;28;20039;-80
2022/05/29 08:33:19;;;;;;;6.05;2.20;;;13.60;99.90;;;;;;5096248;28;20020;-84
2022/05/29 08:35:47;;;;;;;4.18;1.45;;;13.10;99.90;;;;;;5095384;28;20020;-81
2022/05/29 08:38:15;;;;;;;3.38;1.88;;;12.60;99.90;;;;;;5096167;28;20460;-80
2022/05/29 08:40:44;;;;;;;3.60;1.20;;;12.20;99.90;;;;;;5096138;28;20521;-79
2022/05/29 08:43:28;;;;;;;4.18;1.10;;;11.90;99.90;;;;;;5095417;28;20036;-78
2022/05/29 08:45:54;;;;;;;2.83;1.05;;;11.80;99.90;;;;;;5090220;28;20043;-83
2022/05/29 08:48:24;;;;;;;1.23;1.13;;;11.60;99.90;;;;;;5092657;28;20036;-80
2022/05/29 08:51:22;;;;;;;4.22;1.63;;;11.50;99.90;;;;;;5089568;28;20038;-79
2022/05/29 08:54:09;;;;;;;3.63;1.50;;;11.40;99.90;;;;;;5095420;28;20027;-78
2022/05/29 08:57:02;;;;;;;1.90;1.15;;;11.40;99.90;;;;;;5094686;28;20020;-78
2022/05/29 08:59:50;;;;;;;4.22;1.48;;;11.40;99.90;;;;;;5096304;28;20086;-78
2022/05/29 09:02:34;;;;;;;2.55;0.90;;;11.40;99.90;;;;;;5086592;28;20073;-79
2022/05/29 09:05:13;;;;;;;3.97;1.15;;;11.50;99.90;;;;;;5092788;28;20690;-77
2022/05/29 09:07:40;;;;;;;3.42;0.82;;;11.50;99.90;;;;;;5092376;28;20036;-80
2022/05/29 09:10:21;;;;;;;2.15;0.95;;;11.60;99.90;;;;;;5094414;28;20072;-77
2022/05/29 09:12:52;;;;;;;5.88;1.23;;;11.80;99.90;;;;;;5092069;28;20024;-80
2022/05/29 09:15:36;;;;;;;3.13;0.98;;;11.80;99.90;;;;;;5093292;28;20461;-79
2022/05/29 09:18:39;;;;;;;2.97;0.80;;;11.80;99.90;;;;;;5090554;28;20026;-80
2022/05/29 09:21:11;;;;;;;2.58;0.93;;;12.00;99.90;;;;;;5089325;28;20036;-79
2022/05/29 09:24:06;;;;;;;1.10;0.60;;;12.40;99.90;;;;;;5094090;28;20024;-79
2022/05/29 09:26:37;;;;;;;3.72;0.80;;;12.70;99.90;;;;;;5084774;28;20040;-80
2022/05/29 09:29:04;;;;;;;;;;;12.70;99.90;;;;;;5091327;28;20027;-79
2022/05/29 09:31:31;;;;;;;3.83;1.75;;;13.00;99.90;;;;;;5093613;28;19904;-79
2022/05/29 09:33:56;;;;;;;6.22;1.17;;;13.20;99.90;;;;;;5092527;28;20111;-80
2022/05/29 09:36:25;;;;;;;2.20;0.68;;;13.50;99.90;;;;;;5093232;28;20166;-79
2022/05/29 09:39:26;;;;;;;4.47;0.70;;;13.50;99.90;;;;;;5090525;28;20020;-79
2022/05/29 09:42:18;;;;;;;3.78;0.70;;;13.40;99.90;;;;;;5092348;28;20024;-80
2022/05/29 09:45:04;;;;;;;6.63;0.95;;;13.00;99.90;;;;;;5091365;28;20028;-80
2022/05/29 09:50:18;;;;;;;4.45;0.90;;;12.70;99.90;;;;;;5094468;28;20022;-80
2022/05/29 09:52:45;;;;;;;2.83;0.57;;;12.70;99.90;;;;;;5093756;28;20028;-78
2022/05/29 09:55:28;;;;;;;0.50;0.50;;;12.70;99.90;;;;;;5092137;28;20043;-78
2022/05/29 09:58:02;;;;;;;0.68;0.40;;;12.80;99.90;;;;;;5092971;28;20032;-79
2022/05/29 10:00:34;;;;;;;0.88;0.60;;;12.90;99.90;;;;;;5092295;28;20495;-79
2022/05/29 10:03:01;;;;;;;3.08;1.00;;;13.10;99.90;;;;;;5093637;28;20127;-80
2022/05/29 10:05:33;;;;;;;0.82;0.40;;;13.30;99.90;;;;;;5094236;28;20047;-79
2022/05/29 10:08:17;;;;;;;7.15;1.50;;;13.60;99.90;;;;;;5092783;28;20530;-80
2022/05/29 10:10:42;;;;;;;0.95;0.50;;;13.90;99.90;;;;;;5092305;28;20476;-80
2022/05/29 10:13:08;;;;;;;1.35;0.63;;;14.10;99.90;;;;;;5093696;28;20024;-80
2022/05/29 10:15:41;;;;;;;2.58;0.60;;;14.10;99.90;;;;;;5093428;28;20438;-80
2022/05/29 10:18:32;;;;;;;2.35;0.60;;;14.00;99.90;;;;;;5093666;28;20069;-80
2022/05/29 10:21:31;;;;;;;2.63;0.88;;;14.00;99.90;;;;;;5093390;28;20020;-79
2022/05/29 10:24:21;;;;;;;3.63;1.27;;;14.10;99.90;;;;;;5090897;28;20012;-79
2022/05/29 10:26:49;;;;;;;0.80;0.40;;;14.00;99.90;;;;;;5093661;28;20549;-79
2022/05/29 10:29:28;;;;;;;1.65;0.50;;;13.70;99.90;;;;;;5092791;28;20042;-79
2022/05/29 10:31:55;;;;;;;1.05;0.55;;;13.20;99.90;;;;;;5092814;28;20104;-80
2022/05/29 10:34:30;;;;;;;1.95;0.50;;;12.90;99.90;;;;;;5084282;28;20111;-80
2022/05/29 10:36:56;;;;;;;4.53;0.63;;;12.50;99.90;;;;;;5092784;28;20024;-79
2022/05/29 10:39:31;;;;;;;1.65;0.75;;;12.20;99.90;;;;;;5090399;28;20403;-81
2022/05/29 10:41:58;;;;;;;3.78;0.60;;;11.80;99.90;;;;;;5091373;28;20025;-81
2022/05/29 10:44:44;;;;;;;3.72;0.82;;;11.40;99.90;;;;;;5092891;28;20031;-77
2022/05/29 10:47:26;;;;;;;2.88;0.50;;;11.20;99.90;;;;;;5078749;28;20040;-76
2022/05/29 10:50:14;;;;;;;5.25;0.80;;;11.00;99.90;;;;;;5088963;28;20460;-77
2022/05/29 10:52:49;;;;;;;5.13;1.00;;;10.90;99.90;;;;;;5093115;28;20024;-76
2022/05/29 10:55:32;;;;;;;1.95;0.60;;;10.90;99.90;;;;;;5093040;28;20020;-76
2022/05/29 10:58:28;;;;;;;3.13;1.17;;;10.90;99.90;;;;;;5091574;28;20020;-75
2022/05/29 11:03:17;;;;;;;6.85;1.45;;;10.90;99.90;;;;;;5085336;28;20111;-74
2022/05/29 11:04:29;;;;;;;8.15;1.77;;;11.00;99.90;;;;;;5086703;28;20481;-76
2022/05/29 11:07:15;;;;;;;9.50;1.75;;;11.20;99.90;;;;;;5089714;28;20408;-77
2022/05/29 11:10:06;;;;;;;6.05;1.55;;;11.40;99.90;;;;;;5093168;28;20081;-76
2022/05/29 11:12:53;;;;;;;7.18;1.42;;;11.40;99.90;;;;;;5092796;28;20031;-76
2022/05/29 11:15:46;;;;;;;6.43;1.80;;;11.60;99.90;;;;;;5092984;28;20036;-76
2022/05/29 11:18:32;;;;;;;5.00;1.70;;;11.60;99.90;;;;;;5091880;28;20561;-76
2022/05/29 11:21:13;;;;;;;9.05;1.52;;;11.80;99.90;;;;;;5091704;28;20024;-75
2022/05/29 11:23:44;;;;;;;3.13;1.15;;;11.70;99.90;;;;;;5092950;28;20020;-77
2022/05/29 11:26:45;;;;;;;4.93;1.42;;;11.70;99.90;;;;;;5079250;28;20035;-76
2022/05/29 11:29:31;;;;;;;7.40;1.80;;;11.60;99.90;;;;;;5092114;28;20472;-76
2022/05/29 11:32:18;;;;;;;8.25;1.85;;;11.60;99.90;;;;;;5091608;28;20107;-77
2022/05/29 11:34:58;;;;;;;11.43;2.55;;;11.60;99.90;;;;;;5080620;28;20016;-77
2022/05/29 11:37:43;;;;;;;9.80;1.97;;;11.70;99.90;;;;;;5092407;28;20038;-76
2022/05/29 11:40:35;;;;;;;7.85;2.08;;;11.70;99.90;;;;;;5091365;28;20028;-75
2022/05/29 11:43:14;;;;;;;7.88;2.75;;;11.90;99.90;;;;;;5074112;28;20039;-77
2022/05/29 11:51:43;;;;;;;7.70;1.90;;;12.30;99.90;;;;;;5091970;28;20378;-76
2022/05/29 11:54:34;;;;;;;5.95;2.00;;;12.30;99.90;;;;;;5091275;28;20036;-76
2022/05/29 11:57:25;;;;;;;11.07;2.03;;;12.30;99.90;;;;;;5080561;28;20020;-77
2022/05/29 12:00:22;;;;;;;8.32;1.60;;;12.40;99.90;;;;;;5090985;28;20484;-77
2022/05/29 12:03:12;;;;;;;7.30;1.80;;;12.40;99.90;;;;;;5038765;28;20028;-78
2022/05/29 12:05:44;;;;;;;7.93;1.50;;;12.40;99.90;;;;;;5091083;28;20027;-78
2022/05/29 12:08:25;;;;;;;8.70;1.15;;;12.60;99.90;;;;;;5091397;28;20119;-80
2022/05/29 12:11:28;;;;;;;9.38;1.27;;;12.60;99.90;;;;;;5079482;28;20021;-80
2022/05/29 12:14:12;;;;;;;8.18;1.05;;;12.70;99.90;;;;;;5090839;28;20027;-79
2022/05/29 12:16:41;;;;;;;4.68;1.52;;;12.90;99.90;;;;;;5091859;28;20465;-79
2022/05/29 12:19:18;;;;;;;5.20;1.25;;;12.90;99.90;;;;;;5091881;28;20024;-79
2022/05/29 12:21:55;;;;;;;1.70;0.57;;;13.10;99.90;;;;;;5089806;28;20024;-79
2022/05/29 12:24:25;;;;;;;5.60;0.95;;;13.20;99.90;;;;;;5089715;28;20024;-80
2022/05/29 12:26:57;;;;;;;3.72;1.13;;;13.10;99.90;;;;;;5089668;28;20472;-81
2022/05/29 12:29:29;;;;;;;5.55;0.90;;;13.20;99.90;;;;;;5086550;28;20110;-80
2022/05/29 12:32:31;;;;;;;3.85;1.13;;;13.30;99.90;;;;;;5089161;28;20084;-80
2022/05/29 12:35:35;;;;;;;3.60;0.85;;;13.30;99.90;;;;;;5090401;28;20090;-81
2022/05/29 12:38:04;;;;;;;4.93;1.70;;;13.30;99.90;;;;;;5089834;28;20050;-82
2022/05/29 12:40:49;;;;;;;4.35;0.98;;;13.20;99.90;;;;;;5089223;28;20111;-81
2022/05/29 12:43:52;;;;;;;6.55;1.10;;;13.20;99.90;;;;;;5086530;28;20016;-81
2022/05/29 12:46:45;;;;;;;4.22;0.60;;;13.20;99.90;;;;;;5088728;28;20035;-81
2022/05/29 12:49:29;;;;;;;3.17;0.98;;;13.30;99.90;;;;;;5087186;28;20040;-81
2022/05/29 12:51:57;;;;;;;2.80;1.15;;;13.40;99.90;;;;;;5086482;28;20464;-80
2022/05/29 12:54:46;;;;;;;2.92;1.20;;;13.70;99.90;;;;;;5088126;28;20048;-80
2022/05/29 12:57:24;;;;;;;4.35;0.80;;;13.90;99.90;;;;;;5087069;28;20020;-79
2022/05/29 13:00:13;;;;;;;4.63;1.10;;;14.00;99.90;;;;;;5081537;28;20286;-78
2022/05/29 13:02:51;;;;;;;4.55;1.00;;;14.20;99.90;;;;;;5086892;28;20067;-79
2022/05/29 13:05:42;;;;;;;2.63;0.90;;;14.30;99.90;;;;;;5094550;28;20027;-78
2022/05/29 13:08:34;;;;;;;4.03;1.00;;;14.60;99.90;;;;;;5034950;28;20044;-79
2022/05/29 13:11:01;;;;;;;6.82;1.00;;;14.80;99.90;;;;;;5083119;28;20020;-79
2022/05/29 13:13:46;;;;;;;4.78;1.00;;;14.90;99.90;;;;;;5080620;28;20060;-80
2022/05/29 13:16:39;;;;;;;2.58;0.80;;;14.80;99.90;;;;;;5094641;28;20028;-79
2022/05/29 13:19:13;;;;;;;2.58;0.73;;;14.60;99.90;;;;;;5093871;28;20020;-78
2022/05/29 13:22:01;;;;;;;2.42;0.85;;;14.60;99.90;;;;;;5082211;28;20036;-77
2022/05/29 13:24:46;;;;;;;3.97;0.68;;;14.50;99.90;;;;;;5082813;28;20035;-77
2022/05/29 13:27:17;;;;;;;0.93;0.47;;;14.30;99.90;;;;;;5094833;28;20039;-80
2022/05/29 13:29:46;;;;;;;3.15;0.60;;;14.20;99.90;;;;;;5094945;28;20016;-77
2022/05/29 13:32:14;;;;;;;1.42;0.52;;;14.10;99.90;;;;;;5093859;28;20028;-78
2022/05/29 13:34:44;;;;;;;4.32;0.70;;;14.20;99.90;;;;;;5094884;28;20028;-78
2022/05/29 13:37:43;;;;;;;3.08;0.90;;;14.40;99.90;;;;;;5094536;28;20343;-77
2022/05/29 13:40:21;;;;;;;3.40;0.75;;;14.60;99.90;;;;;;5093828;28;20024;-77
2022/05/29 13:42:52;;;;;;;1.80;0.60;;;14.60;99.90;;;;;;5094144;28;20093;-77
2022/05/29 13:45:23;;;;;;;2.15;0.52;;;14.60;99.90;;;;;;5089123;28;20028;-78
2022/05/29 13:48:04;;;;;;;4.18;0.70;;;14.70;99.90;;;;;;5087353;28;20036;-77
2022/05/29 13:50:45;;;;;;;2.47;0.88;;;15.00;99.90;;;;;;5094391;28;20020;-78
2022/05/29 13:53:27;;;;;;;2.78;0.80;;;15.10;99.90;;;;;;5093418;28;20206;-79
2022/05/29 13:56:11;;;;;;;5.22;0.75;;;14.90;99.90;;;;;;5088777;28;20024;-78